sensor_id;sensor_type;location;lat;lon;timestamp;P1;durP1;ratioP1;P2;durP2;ratioP2
16669;SDS011;8448;52.034;5.158;2023-01-10T00:01:04;13.73;;;2.60;;
16669;SDS011;8448;52.034;5.158;2023-01-10T00:03:32;10.97;;;2.40;;
16669;SDS011;8448;52.034;5.158;2023-01-10T00:05:59;11.70;;;2.33;;
16669;SDS011;8448;52.034;5.158;2023-01-10T00:08:26;13.13;;;3.30;;
16669;SDS011;8448;52.034;5.158;2023-01-10T00:10:54;13.50;;;3.00;;
16669;SDS011;8448;52.034;5.158;2023-01-10T00:13:22;13.90;;;2.83;;
16669;SDS011;8448;52.034;5.158;2023-01-10T00:15:49;15.03;;;2.90;;
16669;SDS011;8448;52.034;5.158;2023-01-10T00:18:16;17.20;;;3.20;;
16669;SDS011;8448;52.034;5.158;2023-01-10T00:20:45;15.13;;;2.70;;
16669;SDS011;8448;52.034;5.158;2023-01-10T00:23:13;13.33;;;2.53;;
16669;SDS011;8448;52.034;5.158;2023-01-10T00:25:41;12.93;;;2.70;;
16669;SDS011;8448;52.034;5.158;2023-01-10T00:28:08;14.53;;;2.80;;
16669;SDS011;8448;52.034;5.158;2023-01-10T00:30:47;12.23;;;3.10;;
16669;SDS011;8448;52.034;5.158;2023-01-10T00:33:21;11.13;;;2.67;;
16669;SDS011;8448;52.034;5.158;2023-01-10T00:35:49;14.50;;;2.93;;
16669;SDS011;8448;52.034;5.158;2023-01-10T00:38:16;17.53;;;2.50;;
16669;SDS011;8448;52.034;5.158;2023-01-10T00:40:44;11.50;;;2.63;;
16669;SDS011;8448;52.034;5.158;2023-01-10T00:43:11;12.23;;;2.60;;
16669;SDS011;8448;52.034;5.158;2023-01-10T00:45:57;18.37;;;3.23;;
16669;SDS011;8448;52.034;5.158;2023-01-10T00:48:26;11.80;;;2.37;;
16669;SDS011;8448;52.034;5.158;2023-01-10T00:50:56;9.13;;;2.70;;
16669;SDS011;8448;52.034;5.158;2023-01-10T00:53:23;17.60;;;2.47;;
16669;SDS011;8448;52.034;5.158;2023-01-10T00:55:52;15.93;;;2.87;;
16669;SDS011;8448;52.034;5.158;2023-01-10T00:58:19;13.27;;;2.53;;
16669;SDS011;8448;52.034;5.158;2023-01-10T01:00:47;14.57;;;2.70;;
16669;SDS011;8448;52.034;5.158;2023-01-10T01:03:17;14.67;;;2.80;;
16669;SDS011;8448;52.034;5.158;2023-01-10T01:05:45;11.27;;;2.20;;
16669;SDS011;8448;52.034;5.158;2023-01-10T01:08:14;11.97;;;2.53;;
16669;SDS011;8448;52.034;5.158;2023-01-10T01:10:42;14.13;;;2.10;;
16669;SDS011;8448;52.034;5.158;2023-01-10T01:13:11;11.53;;;2.40;;
16669;SDS011;8448;52.034;5.158;2023-01-10T01:15:39;15.77;;;2.57;;
16669;SDS011;8448;52.034;5.158;2023-01-10T01:18:06;14.57;;;2.87;;
16669;SDS011;8448;52.034;5.158;2023-01-10T01:20:37;12.93;;;2.27;;
16669;SDS011;8448;52.034;5.158;2023-01-10T01:23:05;16.50;;;3.23;;
16669;SDS011;8448;52.034;5.158;2023-01-10T01:25:32;13.20;;;2.40;;
16669;SDS011;8448;52.034;5.158;2023-01-10T01:28:00;17.10;;;2.70;;
16669;SDS011;8448;52.034;5.158;2023-01-10T01:30:27;14.93;;;2.67;;
16669;SDS011;8448;52.034;5.158;2023-01-10T01:32:54;14.27;;;2.87;;
16669;SDS011;8448;52.034;5.158;2023-01-10T01:35:22;14.77;;;2.67;;
16669;SDS011;8448;52.034;5.158;2023-01-10T01:37:51;17.50;;;2.97;;
16669;SDS011;8448;52.034;5.158;2023-01-10T01:40:19;10.90;;;3.13;;
16669;SDS011;8448;52.034;5.158;2023-01-10T01:42:48;11.37;;;2.30;;
16669;SDS011;8448;52.034;5.158;2023-01-10T01:48:07;18.33;;;3.30;;
16669;SDS011;8448;52.034;5.158;2023-01-10T01:50:41;13.53;;;2.73;;
16669;SDS011;8448;52.034;5.158;2023-01-10T01:53:14;14.63;;;2.67;;
16669;SDS011;8448;52.034;5.158;2023-01-10T01:55:44;15.30;;;2.87;;
16669;SDS011;8448;52.034;5.158;2023-01-10T01:58:16;14.77;;;2.60;;
16669;SDS011;8448;52.034;5.158;2023-01-10T02:00:45;11.63;;;2.27;;
16669;SDS011;8448;52.034;5.158;2023-01-10T02:03:12;12.53;;;2.60;;
16669;SDS011;8448;52.034;5.158;2023-01-10T02:05:40;12.10;;;2.97;;
16669;SDS011;8448;52.034;5.158;2023-01-10T02:08:09;17.47;;;2.73;;
16669;SDS011;8448;52.034;5.158;2023-01-10T02:10:43;16.07;;;2.67;;
16669;SDS011;8448;52.034;5.158;2023-01-10T02:13:13;15.97;;;2.80;;
16669;SDS011;8448;52.034;5.158;2023-01-10T02:15:41;19.20;;;2.90;;
16669;SDS011;8448;52.034;5.158;2023-01-10T02:18:09;10.43;;;2.40;;
16669;SDS011;8448;52.034;5.158;2023-01-10T02:20:38;18.10;;;2.70;;
16669;SDS011;8448;52.034;5.158;2023-01-10T02:23:19;15.47;;;2.77;;
16669;SDS011;8448;52.034;5.158;2023-01-10T02:26:14;16.23;;;3.00;;
16669;SDS011;8448;52.034;5.158;2023-01-10T02:29:25;14.53;;;2.57;;
16669;SDS011;8448;52.034;5.158;2023-01-10T02:32:21;12.97;;;2.27;;
16669;SDS011;8448;52.034;5.158;2023-01-10T02:34:58;13.57;;;2.67;;
16669;SDS011;8448;52.034;5.158;2023-01-10T02:37:32;13.53;;;2.47;;
16669;SDS011;8448;52.034;5.158;2023-01-10T02:40:07;16.40;;;3.97;;
16669;SDS011;8448;52.034;5.158;2023-01-10T02:42:41;17.20;;;2.60;;
16669;SDS011;8448;52.034;5.158;2023-01-10T02:45:11;15.87;;;2.87;;
16669;SDS011;8448;52.034;5.158;2023-01-10T02:47:43;15.97;;;3.00;;
16669;SDS011;8448;52.034;5.158;2023-01-10T02:50:24;16.33;;;2.97;;
16669;SDS011;8448;52.034;5.158;2023-01-10T02:53:05;16.13;;;3.20;;
16669;SDS011;8448;52.034;5.158;2023-01-10T02:55:37;17.27;;;2.83;;
16669;SDS011;8448;52.034;5.158;2023-01-10T02:58:23;17.70;;;3.33;;
16669;SDS011;8448;52.034;5.158;2023-01-10T03:00:55;15.43;;;2.60;;
16669;SDS011;8448;52.034;5.158;2023-01-10T03:03:29;14.23;;;2.67;;
16669;SDS011;8448;52.034;5.158;2023-01-10T03:06:02;18.80;;;2.47;;
16669;SDS011;8448;52.034;5.158;2023-01-10T03:08:37;18.43;;;3.43;;
16669;SDS011;8448;52.034;5.158;2023-01-10T03:11:07;17.90;;;3.00;;
16669;SDS011;8448;52.034;5.158;2023-01-10T03:13:36;13.47;;;3.23;;
16669;SDS011;8448;52.034;5.158;2023-01-10T03:16:07;17.63;;;3.00;;
16669;SDS011;8448;52.034;5.158;2023-01-10T03:18:40;20.30;;;3.47;;
16669;SDS011;8448;52.034;5.158;2023-01-10T03:21:10;16.73;;;3.97;;
16669;SDS011;8448;52.034;5.158;2023-01-10T03:23:38;17.23;;;3.23;;
16669;SDS011;8448;52.034;5.158;2023-01-10T03:26:06;19.07;;;3.57;;
16669;SDS011;8448;52.034;5.158;2023-01-10T03:28:37;20.30;;;3.63;;
16669;SDS011;8448;52.034;5.158;2023-01-10T03:31:07;17.27;;;2.87;;
16669;SDS011;8448;52.034;5.158;2023-01-10T03:33:36;19.40;;;3.00;;
16669;SDS011;8448;52.034;5.158;2023-01-10T03:36:08;16.17;;;3.27;;
16669;SDS011;8448;52.034;5.158;2023-01-10T03:38:42;22.13;;;3.50;;
16669;SDS011;8448;52.034;5.158;2023-01-10T03:41:14;19.57;;;3.17;;
16669;SDS011;8448;52.034;5.158;2023-01-10T03:43:46;18.23;;;3.17;;
16669;SDS011;8448;52.034;5.158;2023-01-10T03:46:35;14.73;;;3.20;;
16669;SDS011;8448;52.034;5.158;2023-01-10T03:49:06;19.63;;;3.30;;
16669;SDS011;8448;52.034;5.158;2023-01-10T03:51:35;17.53;;;3.63;;
16669;SDS011;8448;52.034;5.158;2023-01-10T03:54:04;18.40;;;3.17;;
16669;SDS011;8448;52.034;5.158;2023-01-10T03:56:42;18.67;;;3.53;;
16669;SDS011;8448;52.034;5.158;2023-01-10T03:59:10;19.53;;;3.77;;
16669;SDS011;8448;52.034;5.158;2023-01-10T04:01:37;17.47;;;3.80;;
16669;SDS011;8448;52.034;5.158;2023-01-10T04:04:06;18.07;;;3.53;;
16669;SDS011;8448;52.034;5.158;2023-01-10T04:06:33;21.33;;;3.20;;
16669;SDS011;8448;52.034;5.158;2023-01-10T04:09:01;17.67;;;3.33;;
16669;SDS011;8448;52.034;5.158;2023-01-10T04:11:28;18.23;;;3.20;;
16669;SDS011;8448;52.034;5.158;2023-01-10T04:13:55;23.10;;;3.00;;
16669;SDS011;8448;52.034;5.158;2023-01-10T04:16:23;18.57;;;3.63;;
16669;SDS011;8448;52.034;5.158;2023-01-10T04:18:50;16.90;;;3.33;;
16669;SDS011;8448;52.034;5.158;2023-01-10T04:21:19;23.23;;;3.60;;
16669;SDS011;8448;52.034;5.158;2023-01-10T04:23:46;16.87;;;2.70;;
16669;SDS011;8448;52.034;5.158;2023-01-10T04:26:14;14.73;;;3.10;;
16669;SDS011;8448;52.034;5.158;2023-01-10T04:28:41;22.03;;;4.07;;
16669;SDS011;8448;52.034;5.158;2023-01-10T04:31:08;15.43;;;3.60;;
16669;SDS011;8448;52.034;5.158;2023-01-10T04:33:36;21.13;;;3.23;;
16669;SDS011;8448;52.034;5.158;2023-01-10T04:36:05;22.80;;;3.20;;
16669;SDS011;8448;52.034;5.158;2023-01-10T04:38:34;16.40;;;3.20;;
16669;SDS011;8448;52.034;5.158;2023-01-10T04:41:01;17.40;;;2.87;;
16669;SDS011;8448;52.034;5.158;2023-01-10T04:43:29;15.77;;;3.30;;
16669;SDS011;8448;52.034;5.158;2023-01-10T04:45:56;18.93;;;4.00;;
16669;SDS011;8448;52.034;5.158;2023-01-10T04:48:24;14.77;;;3.73;;
16669;SDS011;8448;52.034;5.158;2023-01-10T04:50:52;18.70;;;3.87;;
16669;SDS011;8448;52.034;5.158;2023-01-10T04:53:20;15.20;;;3.27;;
16669;SDS011;8448;52.034;5.158;2023-01-10T04:55:48;19.10;;;3.63;;
16669;SDS011;8448;52.034;5.158;2023-01-10T04:58:16;20.73;;;3.30;;
16669;SDS011;8448;52.034;5.158;2023-01-10T05:00:43;16.27;;;2.67;;
16669;SDS011;8448;52.034;5.158;2023-01-10T05:03:11;13.13;;;2.87;;
16669;SDS011;8448;52.034;5.158;2023-01-10T05:05:41;16.27;;;3.40;;
16669;SDS011;8448;52.034;5.158;2023-01-10T05:08:09;15.50;;;3.27;;
16669;SDS011;8448;52.034;5.158;2023-01-10T05:10:36;15.67;;;3.20;;
16669;SDS011;8448;52.034;5.158;2023-01-10T05:13:05;19.02;;;4.03;;
16669;SDS011;8448;52.034;5.158;2023-01-10T05:15:32;18.27;;;3.50;;
16669;SDS011;8448;52.034;5.158;2023-01-10T05:17:59;15.57;;;3.57;;
16669;SDS011;8448;52.034;5.158;2023-01-10T05:20:27;22.57;;;4.70;;
16669;SDS011;8448;52.034;5.158;2023-01-10T05:22:54;16.83;;;3.37;;
16669;SDS011;8448;52.034;5.158;2023-01-10T05:25:21;19.63;;;3.60;;
16669;SDS011;8448;52.034;5.158;2023-01-10T05:27:49;16.03;;;3.90;;
16669;SDS011;8448;52.034;5.158;2023-01-10T05:30:18;18.30;;;3.40;;
16669;SDS011;8448;52.034;5.158;2023-01-10T05:32:45;21.23;;;3.83;;
16669;SDS011;8448;52.034;5.158;2023-01-10T05:35:13;22.50;;;3.73;;
16669;SDS011;8448;52.034;5.158;2023-01-10T05:37:41;19.53;;;3.47;;
16669;SDS011;8448;52.034;5.158;2023-01-10T05:40:10;21.07;;;3.47;;
16669;SDS011;8448;52.034;5.158;2023-01-10T05:42:37;15.20;;;3.60;;
16669;SDS011;8448;52.034;5.158;2023-01-10T05:45:05;14.13;;;3.53;;
16669;SDS011;8448;52.034;5.158;2023-01-10T05:47:35;24.53;;;3.63;;
16669;SDS011;8448;52.034;5.158;2023-01-10T05:50:02;23.40;;;4.60;;
16669;SDS011;8448;52.034;5.158;2023-01-10T05:52:30;21.50;;;4.37;;
16669;SDS011;8448;52.034;5.158;2023-01-10T05:54:57;23.47;;;3.70;;
16669;SDS011;8448;52.034;5.158;2023-01-10T05:57:24;26.08;;;4.57;;
16669;SDS011;8448;52.034;5.158;2023-01-10T05:59:52;20.53;;;4.43;;
16669;SDS011;8448;52.034;5.158;2023-01-10T06:02:19;20.63;;;3.63;;
16669;SDS011;8448;52.034;5.158;2023-01-10T06:04:48;17.83;;;3.80;;
16669;SDS011;8448;52.034;5.158;2023-01-10T06:07:16;18.88;;;4.57;;
16669;SDS011;8448;52.034;5.158;2023-01-10T06:09:43;22.77;;;3.87;;
16669;SDS011;8448;52.034;5.158;2023-01-10T06:12:10;18.90;;;4.20;;
16669;SDS011;8448;52.034;5.158;2023-01-10T06:14:38;19.47;;;3.33;;
16669;SDS011;8448;52.034;5.158;2023-01-10T06:17:06;21.10;;;3.87;;
16669;SDS011;8448;52.034;5.158;2023-01-10T06:19:34;18.03;;;3.77;;
16669;SDS011;8448;52.034;5.158;2023-01-10T06:22:03;24.67;;;4.23;;
16669;SDS011;8448;52.034;5.158;2023-01-10T06:24:30;21.33;;;4.37;;
16669;SDS011;8448;52.034;5.158;2023-01-10T06:27:01;18.83;;;3.90;;
16669;SDS011;8448;52.034;5.158;2023-01-10T06:29:28;25.97;;;3.90;;
16669;SDS011;8448;52.034;5.158;2023-01-10T06:31:56;18.43;;;4.37;;
16669;SDS011;8448;52.034;5.158;2023-01-10T06:34:23;24.67;;;4.07;;
16669;SDS011;8448;52.034;5.158;2023-01-10T06:36:50;21.05;;;4.00;;
16669;SDS011;8448;52.034;5.158;2023-01-10T06:39:19;29.03;;;4.43;;
16669;SDS011;8448;52.034;5.158;2023-01-10T06:41:46;24.20;;;4.37;;
16669;SDS011;8448;52.034;5.158;2023-01-10T06:44:14;23.83;;;4.70;;
16669;SDS011;8448;52.034;5.158;2023-01-10T06:46:41;26.20;;;5.13;;
16669;SDS011;8448;52.034;5.158;2023-01-10T06:49:08;20.43;;;4.67;;
16669;SDS011;8448;52.034;5.158;2023-01-10T06:51:36;23.03;;;4.60;;
16669;SDS011;8448;52.034;5.158;2023-01-10T06:54:03;19.83;;;4.70;;
16669;SDS011;8448;52.034;5.158;2023-01-10T06:56:32;26.25;;;4.88;;
16669;SDS011;8448;52.034;5.158;2023-01-10T06:58:59;23.23;;;4.50;;
16669;SDS011;8448;52.034;5.158;2023-01-10T07:01:27;24.80;;;4.83;;
16669;SDS011;8448;52.034;5.158;2023-01-10T07:03:54;20.77;;;3.80;;
16669;SDS011;8448;52.034;5.158;2023-01-10T07:06:21;24.93;;;4.60;;
16669;SDS011;8448;52.034;5.158;2023-01-10T07:08:49;24.97;;;4.20;;
16669;SDS011;8448;52.034;5.158;2023-01-10T07:11:16;26.43;;;4.67;;
16669;SDS011;8448;52.034;5.158;2023-01-10T07:13:45;23.10;;;4.13;;
16669;SDS011;8448;52.034;5.158;2023-01-10T07:16:13;24.87;;;4.40;;
16669;SDS011;8448;52.034;5.158;2023-01-10T07:18:41;24.15;;;5.45;;
16669;SDS011;8448;52.034;5.158;2023-01-10T07:21:09;23.47;;;4.67;;
16669;SDS011;8448;52.034;5.158;2023-01-10T07:23:36;29.30;;;5.60;;
16669;SDS011;8448;52.034;5.158;2023-01-10T07:26:04;22.17;;;5.03;;
16669;SDS011;8448;52.034;5.158;2023-01-10T07:28:32;23.77;;;4.60;;
16669;SDS011;8448;52.034;5.158;2023-01-10T07:31:02;26.50;;;5.23;;
16669;SDS011;8448;52.034;5.158;2023-01-10T07:33:30;24.93;;;5.43;;
16669;SDS011;8448;52.034;5.158;2023-01-10T07:35:59;24.80;;;5.80;;
16669;SDS011;8448;52.034;5.158;2023-01-10T07:38:26;22.90;;;5.90;;
16669;SDS011;8448;52.034;5.158;2023-01-10T07:40:54;27.47;;;5.80;;
16669;SDS011;8448;52.034;5.158;2023-01-10T07:43:21;21.77;;;5.10;;
16669;SDS011;8448;52.034;5.158;2023-01-10T07:45:48;26.23;;;5.70;;
16669;SDS011;8448;52.034;5.158;2023-01-10T07:48:17;21.70;;;5.03;;
16669;SDS011;8448;52.034;5.158;2023-01-10T07:50:44;29.77;;;6.03;;
16669;SDS011;8448;52.034;5.158;2023-01-10T07:53:12;22.47;;;5.50;;
16669;SDS011;8448;52.034;5.158;2023-01-10T07:55:39;25.10;;;6.23;;
16669;SDS011;8448;52.034;5.158;2023-01-10T07:58:09;27.10;;;6.60;;
16669;SDS011;8448;52.034;5.158;2023-01-10T08:00:37;22.73;;;6.07;;
16669;SDS011;8448;52.034;5.158;2023-01-10T08:03:04;26.57;;;6.57;;
16669;SDS011;8448;52.034;5.158;2023-01-10T08:05:33;29.23;;;6.83;;
16669;SDS011;8448;52.034;5.158;2023-01-10T08:08:02;25.57;;;5.87;;
16669;SDS011;8448;52.034;5.158;2023-01-10T08:10:31;23.63;;;6.40;;
16669;SDS011;8448;52.034;5.158;2023-01-10T08:12:59;27.00;;;6.40;;
16669;SDS011;8448;52.034;5.158;2023-01-10T08:15:27;30.67;;;6.40;;
16669;SDS011;8448;52.034;5.158;2023-01-10T08:17:57;28.97;;;6.27;;
16669;SDS011;8448;52.034;5.158;2023-01-10T08:20:25;25.13;;;6.33;;
16669;SDS011;8448;52.034;5.158;2023-01-10T08:22:55;26.80;;;6.87;;
16669;SDS011;8448;52.034;5.158;2023-01-10T08:25:22;23.73;;;6.00;;
16669;SDS011;8448;52.034;5.158;2023-01-10T08:27:49;25.07;;;6.50;;
16669;SDS011;8448;52.034;5.158;2023-01-10T08:30:17;27.57;;;6.37;;
16669;SDS011;8448;52.034;5.158;2023-01-10T08:32:44;23.90;;;5.97;;
16669;SDS011;8448;52.034;5.158;2023-01-10T08:35:12;24.80;;;5.77;;
16669;SDS011;8448;52.034;5.158;2023-01-10T08:37:39;31.57;;;6.90;;
16669;SDS011;8448;52.034;5.158;2023-01-10T08:40:09;24.33;;;6.33;;
16669;SDS011;8448;52.034;5.158;2023-01-10T08:42:36;29.53;;;6.33;;
16669;SDS011;8448;52.034;5.158;2023-01-10T08:45:04;24.67;;;6.00;;
16669;SDS011;8448;52.034;5.158;2023-01-10T08:47:32;21.63;;;5.93;;
16669;SDS011;8448;52.034;5.158;2023-01-10T08:50:00;30.33;;;6.03;;
16669;SDS011;8448;52.034;5.158;2023-01-10T08:52:27;25.17;;;5.50;;
16669;SDS011;8448;52.034;5.158;2023-01-10T08:54:54;26.33;;;5.90;;
16669;SDS011;8448;52.034;5.158;2023-01-10T08:57:23;21.30;;;5.60;;
16669;SDS011;8448;52.034;5.158;2023-01-10T08:59:51;28.43;;;6.50;;
16669;SDS011;8448;52.034;5.158;2023-01-10T09:02:18;26.30;;;5.17;;
16669;SDS011;8448;52.034;5.158;2023-01-10T09:04:45;24.30;;;5.70;;
16669;SDS011;8448;52.034;5.158;2023-01-10T09:07:13;21.53;;;5.30;;
16669;SDS011;8448;52.034;5.158;2023-01-10T09:09:40;23.77;;;5.63;;
16669;SDS011;8448;52.034;5.158;2023-01-10T09:12:08;23.53;;;5.43;;
16669;SDS011;8448;52.034;5.158;2023-01-10T09:14:51;25.93;;;5.63;;
16669;SDS011;8448;52.034;5.158;2023-01-10T09:17:18;23.87;;;5.30;;
16669;SDS011;8448;52.034;5.158;2023-01-10T09:19:46;19.37;;;5.27;;
16669;SDS011;8448;52.034;5.158;2023-01-10T09:22:13;26.47;;;5.43;;
16669;SDS011;8448;52.034;5.158;2023-01-10T09:24:41;23.40;;;5.90;;
16669;SDS011;8448;52.034;5.158;2023-01-10T09:27:08;27.37;;;6.00;;
16669;SDS011;8448;52.034;5.158;2023-01-10T09:29:36;23.70;;;5.10;;
16669;SDS011;8448;52.034;5.158;2023-01-10T09:32:05;23.93;;;5.07;;
16669;SDS011;8448;52.034;5.158;2023-01-10T09:34:34;22.87;;;5.00;;
16669;SDS011;8448;52.034;5.158;2023-01-10T09:37:01;22.87;;;4.73;;
16669;SDS011;8448;52.034;5.158;2023-01-10T09:39:28;27.10;;;5.13;;
16669;SDS011;8448;52.034;5.158;2023-01-10T09:42:09;22.43;;;5.03;;
16669;SDS011;8448;52.034;5.158;2023-01-10T09:44:48;18.30;;;4.73;;
16669;SDS011;8448;52.034;5.158;2023-01-10T09:47:21;21.27;;;4.40;;
16669;SDS011;8448;52.034;5.158;2023-01-10T09:49:53;27.43;;;5.07;;
16669;SDS011;8448;52.034;5.158;2023-01-10T09:52:27;26.27;;;4.97;;
16669;SDS011;8448;52.034;5.158;2023-01-10T09:54:56;21.33;;;4.27;;
16669;SDS011;8448;52.034;5.158;2023-01-10T09:57:40;21.37;;;4.53;;
16669;SDS011;8448;52.034;5.158;2023-01-10T10:00:10;20.50;;;4.60;;
16669;SDS011;8448;52.034;5.158;2023-01-10T10:02:44;24.17;;;5.13;;
16669;SDS011;8448;52.034;5.158;2023-01-10T10:05:15;21.30;;;4.67;;
16669;SDS011;8448;52.034;5.158;2023-01-10T10:07:45;20.27;;;4.83;;
16669;SDS011;8448;52.034;5.158;2023-01-10T10:10:20;21.97;;;4.40;;
16669;SDS011;8448;52.034;5.158;2023-01-10T10:12:53;24.23;;;4.77;;
16669;SDS011;8448;52.034;5.158;2023-01-10T10:15:32;18.03;;;4.17;;
16669;SDS011;8448;52.034;5.158;2023-01-10T10:18:07;19.23;;;4.13;;
16669;SDS011;8448;52.034;5.158;2023-01-10T10:20:46;17.50;;;4.30;;
16669;SDS011;8448;52.034;5.158;2023-01-10T10:23:27;28.37;;;4.50;;
16669;SDS011;8448;52.034;5.158;2023-01-10T10:26:10;17.40;;;4.50;;
16669;SDS011;8448;52.034;5.158;2023-01-10T10:28:51;24.17;;;4.53;;
16669;SDS011;8448;52.034;5.158;2023-01-10T10:31:38;21.37;;;4.73;;
16669;SDS011;8448;52.034;5.158;2023-01-10T10:34:21;29.03;;;5.93;;
16669;SDS011;8448;52.034;5.158;2023-01-10T10:36:53;30.00;;;4.43;;
16669;SDS011;8448;52.034;5.158;2023-01-10T10:39:23;25.57;;;4.10;;
16669;SDS011;8448;52.034;5.158;2023-01-10T10:41:54;20.77;;;3.70;;
16669;SDS011;8448;52.034;5.158;2023-01-10T10:44:32;18.87;;;3.97;;
16669;SDS011;8448;52.034;5.158;2023-01-10T10:47:05;15.50;;;3.83;;
16669;SDS011;8448;52.034;5.158;2023-01-10T10:49:41;21.30;;;4.37;;
16669;SDS011;8448;52.034;5.158;2023-01-10T10:52:13;21.40;;;4.97;;
16669;SDS011;8448;52.034;5.158;2023-01-10T10:54:45;22.63;;;3.70;;
16669;SDS011;8448;52.034;5.158;2023-01-10T10:57:12;20.83;;;3.90;;
16669;SDS011;8448;52.034;5.158;2023-01-10T10:59:40;21.80;;;3.87;;
16669;SDS011;8448;52.034;5.158;2023-01-10T11:02:12;19.27;;;4.37;;
16669;SDS011;8448;52.034;5.158;2023-01-10T11:04:53;17.50;;;3.20;;
16669;SDS011;8448;52.034;5.158;2023-01-10T11:07:22;19.03;;;3.67;;
16669;SDS011;8448;52.034;5.158;2023-01-10T11:09:51;19.10;;;4.00;;
16669;SDS011;8448;52.034;5.158;2023-01-10T11:12:29;20.27;;;4.10;;
16669;SDS011;8448;52.034;5.158;2023-01-10T11:14:57;23.17;;;4.47;;
16669;SDS011;8448;52.034;5.158;2023-01-10T11:17:26;21.67;;;4.03;;
16669;SDS011;8448;52.034;5.158;2023-01-10T11:19:57;20.00;;;4.10;;
16669;SDS011;8448;52.034;5.158;2023-01-10T11:22:26;17.63;;;3.87;;
16669;SDS011;8448;52.034;5.158;2023-01-10T11:24:57;16.33;;;3.77;;
16669;SDS011;8448;52.034;5.158;2023-01-10T11:27:25;19.70;;;4.00;;
16669;SDS011;8448;52.034;5.158;2023-01-10T11:29:57;21.63;;;4.17;;
16669;SDS011;8448;52.034;5.158;2023-01-10T11:32:33;21.53;;;4.63;;
16669;SDS011;8448;52.034;5.158;2023-01-10T11:35:05;21.60;;;3.87;;
16669;SDS011;8448;52.034;5.158;2023-01-10T11:37:35;17.50;;;3.93;;
16669;SDS011;8448;52.034;5.158;2023-01-10T11:40:14;18.50;;;4.00;;
16669;SDS011;8448;52.034;5.158;2023-01-10T11:42:44;23.03;;;4.40;;
16669;SDS011;8448;52.034;5.158;2023-01-10T11:45:22;20.13;;;4.40;;
16669;SDS011;8448;52.034;5.158;2023-01-10T11:47:57;19.67;;;4.57;;
16669;SDS011;8448;52.034;5.158;2023-01-10T11:50:35;13.47;;;4.03;;
16669;SDS011;8448;52.034;5.158;2023-01-10T11:53:03;21.27;;;4.17;;
16669;SDS011;8448;52.034;5.158;2023-01-10T11:55:31;21.40;;;3.73;;
16669;SDS011;8448;52.034;5.158;2023-01-10T11:58:02;17.87;;;3.50;;
16669;SDS011;8448;52.034;5.158;2023-01-10T12:00:32;14.53;;;3.40;;
16669;SDS011;8448;52.034;5.158;2023-01-10T12:03:15;16.30;;;3.50;;
16669;SDS011;8448;52.034;5.158;2023-01-10T12:05:50;21.20;;;3.60;;
16669;SDS011;8448;52.034;5.158;2023-01-10T12:08:23;13.13;;;3.30;;
16669;SDS011;8448;52.034;5.158;2023-01-10T12:10:56;16.70;;;3.70;;
16669;SDS011;8448;52.034;5.158;2023-01-10T12:13:27;15.00;;;3.70;;
16669;SDS011;8448;52.034;5.158;2023-01-10T12:16:14;18.33;;;3.83;;
16669;SDS011;8448;52.034;5.158;2023-01-10T12:18:43;17.27;;;3.80;;
16669;SDS011;8448;52.034;5.158;2023-01-10T12:21:13;16.23;;;3.43;;
16669;SDS011;8448;52.034;5.158;2023-01-10T12:23:43;17.20;;;3.83;;
16669;SDS011;8448;52.034;5.158;2023-01-10T12:26:11;17.63;;;3.63;;
16669;SDS011;8448;52.034;5.158;2023-01-10T12:28:40;20.17;;;3.83;;
16669;SDS011;8448;52.034;5.158;2023-01-10T12:31:11;18.80;;;4.03;;
16669;SDS011;8448;52.034;5.158;2023-01-10T12:33:40;14.50;;;3.30;;
16669;SDS011;8448;52.034;5.158;2023-01-10T12:36:25;15.50;;;3.73;;
16669;SDS011;8448;52.034;5.158;2023-01-10T12:39:00;22.93;;;4.80;;
16669;SDS011;8448;52.034;5.158;2023-01-10T12:41:34;18.07;;;3.53;;
16669;SDS011;8448;52.034;5.158;2023-01-10T12:44:25;19.47;;;3.70;;
16669;SDS011;8448;52.034;5.158;2023-01-10T12:46:59;14.87;;;3.73;;
16669;SDS011;8448;52.034;5.158;2023-01-10T12:49:31;22.47;;;3.93;;
16669;SDS011;8448;52.034;5.158;2023-01-10T12:52:02;19.63;;;4.00;;
16669;SDS011;8448;52.034;5.158;2023-01-10T12:54:31;14.30;;;4.03;;
16669;SDS011;8448;52.034;5.158;2023-01-10T12:56:59;17.00;;;4.10;;
16669;SDS011;8448;52.034;5.158;2023-01-10T12:59:33;20.40;;;4.43;;
16669;SDS011;8448;52.034;5.158;2023-01-10T13:02:03;18.13;;;3.77;;
16669;SDS011;8448;52.034;5.158;2023-01-10T13:04:33;16.93;;;3.97;;
16669;SDS011;8448;52.034;5.158;2023-01-10T13:07:03;16.80;;;3.93;;
16669;SDS011;8448;52.034;5.158;2023-01-10T13:09:31;22.03;;;4.30;;
16669;SDS011;8448;52.034;5.158;2023-01-10T13:12:00;16.27;;;3.60;;
16669;SDS011;8448;52.034;5.158;2023-01-10T13:14:30;18.10;;;4.03;;
16669;SDS011;8448;52.034;5.158;2023-01-10T13:17:09;18.83;;;3.90;;
16669;SDS011;8448;52.034;5.158;2023-01-10T13:19:52;19.27;;;4.30;;
16669;SDS011;8448;52.034;5.158;2023-01-10T13:22:55;24.80;;;4.17;;
16669;SDS011;8448;52.034;5.158;2023-01-10T13:25:25;15.73;;;3.23;;
16669;SDS011;8448;52.034;5.158;2023-01-10T13:27:57;14.87;;;3.60;;
16669;SDS011;8448;52.034;5.158;2023-01-10T13:30:30;15.10;;;3.67;;
16669;SDS011;8448;52.034;5.158;2023-01-10T13:33:00;14.37;;;3.33;;
16669;SDS011;8448;52.034;5.158;2023-01-10T13:35:35;16.73;;;3.77;;
16669;SDS011;8448;52.034;5.158;2023-01-10T13:38:05;17.87;;;3.77;;
16669;SDS011;8448;52.034;5.158;2023-01-10T13:40:54;13.90;;;4.10;;
16669;SDS011;8448;52.034;5.158;2023-01-10T13:43:36;18.57;;;3.63;;
16669;SDS011;8448;52.034;5.158;2023-01-10T13:52:26;12.80;;;3.30;;
16669;SDS011;8448;52.034;5.158;2023-01-10T13:54:57;22.70;;;3.80;;
16669;SDS011;8448;52.034;5.158;2023-01-10T14:00:20;17.77;;;3.37;;
16669;SDS011;8448;52.034;5.158;2023-01-10T14:06:04;17.83;;;3.60;;
16669;SDS011;8448;52.034;5.158;2023-01-10T14:08:36;20.97;;;4.13;;
16669;SDS011;8448;52.034;5.158;2023-01-10T14:11:05;22.20;;;3.80;;
16669;SDS011;8448;52.034;5.158;2023-01-10T14:13:34;20.03;;;3.80;;
16669;SDS011;8448;52.034;5.158;2023-01-10T14:16:02;17.63;;;3.60;;
16669;SDS011;8448;52.034;5.158;2023-01-10T14:18:32;20.97;;;3.97;;
16669;SDS011;8448;52.034;5.158;2023-01-10T14:21:03;18.80;;;3.90;;
16669;SDS011;8448;52.034;5.158;2023-01-10T14:23:33;19.23;;;4.33;;
16669;SDS011;8448;52.034;5.158;2023-01-10T14:26:02;20.43;;;3.83;;
16669;SDS011;8448;52.034;5.158;2023-01-10T14:28:31;19.07;;;3.80;;
16669;SDS011;8448;52.034;5.158;2023-01-10T14:31:00;19.10;;;4.33;;
16669;SDS011;8448;52.034;5.158;2023-01-10T14:33:29;21.07;;;4.17;;
16669;SDS011;8448;52.034;5.158;2023-01-10T14:35:58;22.03;;;4.43;;
16669;SDS011;8448;52.034;5.158;2023-01-10T14:38:29;19.27;;;3.57;;
16669;SDS011;8448;52.034;5.158;2023-01-10T14:40:59;18.17;;;3.80;;
16669;SDS011;8448;52.034;5.158;2023-01-10T14:43:29;21.60;;;4.20;;
16669;SDS011;8448;52.034;5.158;2023-01-10T14:46:10;19.73;;;3.83;;
16669;SDS011;8448;52.034;5.158;2023-01-10T14:48:44;18.83;;;3.63;;
16669;SDS011;8448;52.034;5.158;2023-01-10T14:51:21;19.50;;;4.30;;
16669;SDS011;8448;52.034;5.158;2023-01-10T14:53:56;18.40;;;4.00;;
16669;SDS011;8448;52.034;5.158;2023-01-10T14:56:26;18.17;;;4.20;;
16669;SDS011;8448;52.034;5.158;2023-01-10T14:58:57;14.80;;;4.13;;
16669;SDS011;8448;52.034;5.158;2023-01-10T15:01:29;20.53;;;3.93;;
16669;SDS011;8448;52.034;5.158;2023-01-10T15:03:58;18.10;;;4.13;;
16669;SDS011;8448;52.034;5.158;2023-01-10T15:06:28;21.47;;;4.63;;
16669;SDS011;8448;52.034;5.158;2023-01-10T15:08:58;20.73;;;4.17;;
16669;SDS011;8448;52.034;5.158;2023-01-10T15:11:28;20.17;;;4.13;;
16669;SDS011;8448;52.034;5.158;2023-01-10T15:13:58;25.73;;;4.73;;
16669;SDS011;8448;52.034;5.158;2023-01-10T15:16:28;15.97;;;4.60;;
16669;SDS011;8448;52.034;5.158;2023-01-10T15:19:01;24.47;;;4.23;;
16669;SDS011;8448;52.034;5.158;2023-01-10T15:21:40;23.67;;;5.03;;
16669;SDS011;8448;52.034;5.158;2023-01-10T15:27:11;16.30;;;4.57;;